createdAt,value
2017-07-15T00:00:46.320Z,20.57
2017-07-15T00:03:14.770Z,7.97
2017-07-15T00:05:43.343Z,8.70
2017-07-15T00:08:13.011Z,14.77
2017-07-15T00:10:42.779Z,43.70
2017-07-15T00:13:11.243Z,10.17
2017-07-15T00:15:40.096Z,14.27
2017-07-15T00:18:08.945Z,18.57
2017-07-15T00:20:37.466Z,12.47
2017-07-15T00:23:06.323Z,20.07
2017-07-15T00:25:36.452Z,16.30
2017-07-15T00:28:06.041Z,23.90
2017-07-15T00:30:34.671Z,9.40
2017-07-15T00:33:03.520Z,12.70
2017-07-15T00:35:32.000Z,18.40
2017-07-15T00:38:00.895Z,9.57
2017-07-15T00:40:29.345Z,13.37
2017-07-15T00:42:58.418Z,14.83
2017-07-15T00:45:26.945Z,10.50
2017-07-15T00:47:55.464Z,12.70
2017-07-15T00:50:24.325Z,20.13
2017-07-15T00:52:52.848Z,13.53
2017-07-15T00:55:21.282Z,15.07
2017-07-15T00:57:49.751Z,25.47
2017-07-15T01:00:19.077Z,17.80
2017-07-15T01:02:47.982Z,13.50
2017-07-15T01:05:16.434Z,21.53
2017-07-15T01:07:45.272Z,14.80
2017-07-15T01:10:14.165Z,23.47
2017-07-15T01:12:43.014Z,23.70
2017-07-15T01:15:12.004Z,21.93
2017-07-15T01:17:40.898Z,17.80
2017-07-15T01:20:09.385Z,16.33
2017-07-15T01:22:39.439Z,18.20
2017-07-15T01:25:08.302Z,19.53
2017-07-15T01:27:37.147Z,17.20
2017-07-15T01:30:07.064Z,15.50
2017-07-15T01:32:35.948Z,19.10
2017-07-15T01:35:04.891Z,17.67
2017-07-15T01:37:33.347Z,15.50
2017-07-15T01:40:02.209Z,14.47
2017-07-15T01:42:31.509Z,16.50
2017-07-15T01:44:59.937Z,17.20
2017-07-15T01:47:28.806Z,20.83
2017-07-15T01:49:57.684Z,18.77
2017-07-15T01:52:26.922Z,23.77
2017-07-15T01:54:56.288Z,26.00
2017-07-15T01:57:24.402Z,21.50
2017-07-15T01:59:52.858Z,33.03
2017-07-15T02:02:21.366Z,26.70
2017-07-15T02:04:49.807Z,19.77
2017-07-15T02:07:18.981Z,22.20
2017-07-15T02:09:47.482Z,18.30
2017-07-15T02:12:15.943Z,31.33
2017-07-15T02:14:44.844Z,20.33
2017-07-15T02:17:14.489Z,26.60
2017-07-15T02:19:42.953Z,19.37
2017-07-15T02:22:11.439Z,27.30
2017-07-15T02:24:39.904Z,27.67
2017-07-15T02:27:08.418Z,26.80
2017-07-15T02:29:36.895Z,16.97
2017-07-15T02:32:05.348Z,32.90
2017-07-15T02:34:34.255Z,17.60
2017-07-15T02:37:02.768Z,22.37
2017-07-15T02:39:31.611Z,21.20
2017-07-15T02:42:00.448Z,35.93
2017-07-15T02:44:29.507Z,17.00
2017-07-15T02:46:58.368Z,23.93
2017-07-15T02:49:27.809Z,18.40
2017-07-15T02:51:56.640Z,22.53
2017-07-15T02:54:25.097Z,18.87
2017-07-15T02:56:54.416Z,21.53
2017-07-15T02:59:23.097Z,19.33
2017-07-15T03:01:51.925Z,35.77
2017-07-15T03:04:20.388Z,26.57
2017-07-15T03:06:48.871Z,21.37
2017-07-15T03:09:17.698Z,25.73
2017-07-15T03:11:46.147Z,23.00
2017-07-15T03:14:15.054Z,22.90
2017-07-15T03:16:43.532Z,21.47
2017-07-15T03:19:12.415Z,21.83
2017-07-15T03:21:41.830Z,22.30
2017-07-15T03:24:10.451Z,27.97
2017-07-15T03:27:01.318Z,26.97
2017-07-15T03:29:30.284Z,25.03
2017-07-15T03:31:58.743Z,27.37
2017-07-15T03:34:27.686Z,25.83
2017-07-15T03:36:56.554Z,26.93
2017-07-15T03:39:25.191Z,25.50
2017-07-15T03:41:53.686Z,34.23
2017-07-15T03:44:22.347Z,22.57
2017-07-15T03:46:51.218Z,19.77
2017-07-15T03:49:20.314Z,20.97
2017-07-15T03:51:49.203Z,19.60
2017-07-15T03:54:17.644Z,24.17
2017-07-15T03:56:46.153Z,19.27
2017-07-15T03:59:14.992Z,23.23
2017-07-15T04:01:44.577Z,21.67
2017-07-15T04:04:13.030Z,22.10
2017-07-15T04:06:41.540Z,19.27
2017-07-15T04:09:10.388Z,23.17
2017-07-15T04:11:38.882Z,21.67
2017-07-15T04:14:08.103Z,29.27
2017-07-15T04:16:36.998Z,17.10
2017-07-15T04:19:05.868Z,16.10
2017-07-15T04:21:34.938Z,18.63
2017-07-15T04:24:03.842Z,25.23
2017-07-15T04:26:33.064Z,21.83
2017-07-15T04:29:01.530Z,25.67
2017-07-15T04:31:30.410Z,18.53
2017-07-15T04:33:58.873Z,31.20
2017-07-15T04:36:27.778Z,21.00
2017-07-15T04:38:56.269Z,17.90
2017-07-15T04:41:25.117Z,16.23
2017-07-15T04:43:54.166Z,23.43
2017-07-15T04:46:23.058Z,27.00
2017-07-15T04:48:51.989Z,15.33
2017-07-15T04:51:20.829Z,17.80
2017-07-15T04:53:50.453Z,18.93
2017-07-15T04:56:18.901Z,21.03
2017-07-15T04:58:47.757Z,18.33
2017-07-15T05:01:16.709Z,22.63
2017-07-15T05:03:46.066Z,19.77
2017-07-15T05:06:14.904Z,17.50
2017-07-15T05:08:43.830Z,17.13
2017-07-15T05:11:12.677Z,16.07
2017-07-15T05:13:41.909Z,19.63
2017-07-15T05:16:10.794Z,14.73
2017-07-15T05:18:39.631Z,10.83
2017-07-15T05:21:08.085Z,14.20
2017-07-15T05:23:36.968Z,11.23
2017-07-15T05:26:05.819Z,15.13
2017-07-15T05:28:35.043Z,11.23
2017-07-15T05:31:03.950Z,7.53
2017-07-15T05:33:32.788Z,9.00
2017-07-15T05:36:01.631Z,10.10
2017-07-15T05:38:30.506Z,10.50
2017-07-15T05:40:59.700Z,12.73
2017-07-15T05:43:28.541Z,12.40
2017-07-15T05:45:57.829Z,11.90
2017-07-15T05:48:26.324Z,14.90
2017-07-15T05:50:55.992Z,12.53
2017-07-15T05:53:24.502Z,14.93
2017-07-15T05:55:52.947Z,11.03
2017-07-15T05:58:21.785Z,12.60
2017-07-15T06:00:51.495Z,18.23
2017-07-15T06:03:20.332Z,10.10
2017-07-15T06:05:49.253Z,16.40
2017-07-15T06:08:18.429Z,11.43
2017-07-15T06:10:47.273Z,9.00
2017-07-15T06:13:16.103Z,9.63
2017-07-15T06:15:44.612Z,10.57
2017-07-15T06:18:13.450Z,18.80
2017-07-15T06:20:42.095Z,18.97
2017-07-15T06:23:10.774Z,15.73
2017-07-15T06:25:39.791Z,7.97
2017-07-15T06:28:09.033Z,21.17
2017-07-15T06:30:37.490Z,8.60
2017-07-15T06:33:06.335Z,12.70
2017-07-15T06:35:35.241Z,13.60
2017-07-15T06:38:03.691Z,17.77
2017-07-15T06:40:32.525Z,17.30
2017-07-15T06:43:00.840Z,19.77
2017-07-15T06:45:29.703Z,8.03
2017-07-15T06:47:58.550Z,11.63
2017-07-15T06:50:27.049Z,7.30
2017-07-15T06:52:55.895Z,9.50
2017-07-15T06:55:24.744Z,13.40
2017-07-15T06:57:53.700Z,9.43
2017-07-15T07:00:22.535Z,7.80
2017-07-15T07:02:51.371Z,12.50
2017-07-15T07:05:20.303Z,12.00
2017-07-15T07:07:49.345Z,11.40
2017-07-15T07:10:18.212Z,12.53
2017-07-15T07:12:47.084Z,9.37
2017-07-15T07:15:16.295Z,8.40
2017-07-15T07:17:45.199Z,15.60
2017-07-15T07:20:14.042Z,11.37
2017-07-15T07:22:42.880Z,13.73
2017-07-15T07:25:11.749Z,10.87
2017-07-15T07:27:40.207Z,12.73
2017-07-15T07:30:08.716Z,13.27
2017-07-15T07:32:37.558Z,10.97
2017-07-15T07:35:06.517Z,6.23
2017-07-15T07:37:35.764Z,5.13
2017-07-15T07:40:04.213Z,5.07
2017-07-15T07:42:32.661Z,13.37
2017-07-15T07:45:01.729Z,9.47
2017-07-15T07:47:30.581Z,6.40
2017-07-15T07:49:59.036Z,10.63
2017-07-15T07:52:27.563Z,6.50
2017-07-15T07:54:56.013Z,4.77
2017-07-15T07:57:24.856Z,6.20
2017-07-15T07:59:54.265Z,11.63
2017-07-15T08:02:23.098Z,7.13
2017-07-15T08:04:52.705Z,5.80
2017-07-15T08:07:21.152Z,6.10
2017-07-15T08:09:50.731Z,10.43
2017-07-15T08:12:19.175Z,6.10
2017-07-15T08:14:47.819Z,7.33
2017-07-15T08:17:16.336Z,10.50
2017-07-15T08:19:45.191Z,11.90
2017-07-15T08:22:14.430Z,8.73
2017-07-15T08:24:42.878Z,6.27
2017-07-15T08:27:11.753Z,6.27
2017-07-15T08:29:40.592Z,12.60
2017-07-15T08:32:09.032Z,10.10
2017-07-15T08:34:37.523Z,6.50
2017-07-15T08:37:06.359Z,6.90
2017-07-15T08:39:35.204Z,5.93
2017-07-15T08:42:04.148Z,18.53
2017-07-15T08:44:33.250Z,7.23
2017-07-15T08:47:02.298Z,6.07
2017-07-15T08:49:31.361Z,6.33
2017-07-15T08:51:59.816Z,4.13
2017-07-15T08:54:29.024Z,6.20
2017-07-15T08:56:58.276Z,5.63
2017-07-15T08:59:26.908Z,10.47
2017-07-15T09:01:55.768Z,6.43
2017-07-15T09:04:24.278Z,9.53
2017-07-15T09:06:53.140Z,8.67
2017-07-15T09:09:21.579Z,9.27
2017-07-15T09:11:50.813Z,9.90
2017-07-15T09:14:19.256Z,6.00
2017-07-15T09:16:49.648Z,6.63
2017-07-15T09:19:18.874Z,5.30
2017-07-15T09:21:47.776Z,9.33
2017-07-15T09:24:16.526Z,10.33
2017-07-15T09:26:45.187Z,7.10
2017-07-15T09:29:13.677Z,11.80
2017-07-15T09:31:43.039Z,13.30
2017-07-15T09:34:11.909Z,14.87
2017-07-15T09:36:40.270Z,3.63
2017-07-15T09:39:09.098Z,10.20
2017-07-15T09:41:38.905Z,5.00
2017-07-15T09:44:07.749Z,9.40
2017-07-15T09:46:36.198Z,7.03
2017-07-15T09:49:05.094Z,12.53
2017-07-15T09:51:34.024Z,10.00
2017-07-15T09:54:03.743Z,13.87
2017-07-15T09:56:32.593Z,4.60
2017-07-15T09:59:02.636Z,18.90
2017-07-15T10:01:32.102Z,3.90
2017-07-15T10:04:00.998Z,24.13
2017-07-15T10:06:29.429Z,5.43
2017-07-15T10:08:57.873Z,3.77
2017-07-15T10:11:27.210Z,4.30
2017-07-15T10:13:55.655Z,5.43
2017-07-15T10:16:25.687Z,6.67
2017-07-15T10:18:54.129Z,7.30
2017-07-15T10:21:22.912Z,4.17
2017-07-15T10:23:51.824Z,8.23
2017-07-15T10:26:20.658Z,7.10
2017-07-15T10:28:49.092Z,3.87
2017-07-15T10:31:17.616Z,6.33
2017-07-15T10:33:46.039Z,5.70
2017-07-15T10:36:14.873Z,7.53
2017-07-15T10:38:43.378Z,4.20
2017-07-15T10:41:12.215Z,2.60
2017-07-15T10:43:40.775Z,4.43
2017-07-15T10:46:09.832Z,20.63
2017-07-15T10:48:38.288Z,5.23
2017-07-15T10:51:07.570Z,4.43
2017-07-15T10:53:36.024Z,8.17
2017-07-15T10:56:04.459Z,7.10
2017-07-15T10:58:33.391Z,3.90
2017-07-15T11:01:02.251Z,3.87
2017-07-15T11:03:31.111Z,4.07
2017-07-15T11:05:59.997Z,5.27
2017-07-15T11:08:28.885Z,3.20
2017-07-15T11:10:57.744Z,4.10
2017-07-15T11:13:26.620Z,5.40
2017-07-15T11:15:55.063Z,5.90
2017-07-15T11:18:24.277Z,7.53
2017-07-15T11:20:53.116Z,4.83
2017-07-15T11:23:22.075Z,4.90
2017-07-15T11:25:50.604Z,7.60
2017-07-15T11:28:19.434Z,8.33
2017-07-15T11:30:47.895Z,4.47
2017-07-15T11:33:17.169Z,4.13
2017-07-15T11:35:45.625Z,4.40
2017-07-15T11:38:14.070Z,7.90
2017-07-15T11:40:42.585Z,8.17
2017-07-15T11:43:11.467Z,5.10
2017-07-15T11:45:40.311Z,4.43
2017-07-15T11:48:09.580Z,4.80
2017-07-15T11:50:38.446Z,3.80
2017-07-15T11:53:08.135Z,8.47
2017-07-15T11:55:37.010Z,9.73
2017-07-15T11:58:05.651Z,6.63
2017-07-15T12:00:34.132Z,10.60
2017-07-15T12:03:02.625Z,2.67
2017-07-15T12:05:31.069Z,3.03
2017-07-15T12:07:59.499Z,8.27
2017-07-15T12:10:28.374Z,3.70
2017-07-15T12:12:57.251Z,3.83
2017-07-15T12:15:26.156Z,8.50
2017-07-15T12:17:55.395Z,6.07
2017-07-15T12:20:24.596Z,11.10
2017-07-15T12:22:53.841Z,8.20
2017-07-15T12:25:22.276Z,7.93
2017-07-15T12:27:50.806Z,4.43
2017-07-15T12:30:19.658Z,11.83
2017-07-15T12:32:48.113Z,4.10
2017-07-15T12:35:17.364Z,11.17
2017-07-15T12:37:47.171Z,3.30
2017-07-15T12:40:16.389Z,7.50
2017-07-15T12:42:44.822Z,2.40
2017-07-15T12:45:13.423Z,13.33
2017-07-15T12:47:42.318Z,9.33
2017-07-15T12:50:10.752Z,8.50
2017-07-15T12:52:40.023Z,3.43
2017-07-15T12:55:08.452Z,12.30
2017-07-15T12:57:37.312Z,6.37
2017-07-15T13:00:06.595Z,14.03
2017-07-15T13:02:35.061Z,7.23
2017-07-15T13:05:03.991Z,11.83
2017-07-15T13:07:32.827Z,3.80
2017-07-15T13:10:01.320Z,5.77
2017-07-15T13:12:30.427Z,3.73
2017-07-15T13:15:00.021Z,5.63
2017-07-15T13:17:28.456Z,2.97
2017-07-15T13:19:57.207Z,3.90
2017-07-15T13:22:27.388Z,6.70
2017-07-15T13:24:56.233Z,2.67
2017-07-15T13:27:25.055Z,5.57
2017-07-15T13:29:54.686Z,2.93
2017-07-15T13:32:23.587Z,4.70
2017-07-15T13:34:52.856Z,4.63
2017-07-15T13:37:21.687Z,7.33
2017-07-15T13:39:50.747Z,4.33
2017-07-15T13:42:19.579Z,17.10
2017-07-15T13:44:48.032Z,4.10
2017-07-15T13:47:16.541Z,5.67
2017-07-15T13:49:45.691Z,5.47
2017-07-15T13:52:14.720Z,7.67
2017-07-15T13:54:45.681Z,3.90
2017-07-15T13:57:14.110Z,3.10
2017-07-15T13:59:42.573Z,4.40
2017-07-15T14:02:11.827Z,5.10
2017-07-15T14:04:40.720Z,6.83
2017-07-15T14:07:09.557Z,4.00
2017-07-15T14:09:38.412Z,5.53
2017-07-15T14:12:08.271Z,6.77
2017-07-15T14:14:36.750Z,3.80
2017-07-15T14:17:05.619Z,6.60
2017-07-15T14:19:34.119Z,7.03
2017-07-15T14:22:03.206Z,7.77
2017-07-15T14:24:31.642Z,4.40
2017-07-15T14:27:00.516Z,3.23
2017-07-15T14:29:29.372Z,10.00
2017-07-15T14:31:57.912Z,9.20
2017-07-15T14:34:27.168Z,10.73
2017-07-15T14:36:56.232Z,20.10
2017-07-15T14:39:25.486Z,5.23
2017-07-15T14:41:54.323Z,6.83
2017-07-15T14:44:23.676Z,7.50
2017-07-15T14:46:52.519Z,8.53
2017-07-15T14:49:20.998Z,7.00
2017-07-15T14:51:49.458Z,7.90
2017-07-15T14:54:17.974Z,15.43
2017-07-15T14:56:46.418Z,12.07
2017-07-15T14:59:14.863Z,3.13
2017-07-15T15:01:43.353Z,4.13
2017-07-15T15:04:12.188Z,4.63
2017-07-15T15:06:42.318Z,4.50
2017-07-15T15:09:10.821Z,5.30
2017-07-15T15:11:39.394Z,2.40
2017-07-15T15:14:07.922Z,9.10
2017-07-15T15:16:36.755Z,7.40
2017-07-15T15:19:05.180Z,6.10
2017-07-15T15:21:34.079Z,5.90
2017-07-15T15:24:02.529Z,10.93
2017-07-15T15:26:31.378Z,10.67
2017-07-15T15:29:00.289Z,7.33
2017-07-15T15:31:28.725Z,9.10
2017-07-15T15:33:58.187Z,7.63
2017-07-15T15:36:27.139Z,20.70
2017-07-15T15:38:56.150Z,5.37
2017-07-15T15:41:24.981Z,4.50
2017-07-15T15:43:53.999Z,6.57
2017-07-15T15:46:22.833Z,7.90
2017-07-15T15:48:51.664Z,7.80
2017-07-15T15:51:22.121Z,5.47
2017-07-15T15:53:50.552Z,5.10
2017-07-15T15:56:18.994Z,9.37
2017-07-15T15:58:47.741Z,9.97
2017-07-15T16:01:16.599Z,5.33
2017-07-15T16:03:45.424Z,5.90
2017-07-15T16:06:13.932Z,4.27
2017-07-15T16:08:43.221Z,3.00
2017-07-15T16:11:12.278Z,10.90
2017-07-15T16:13:41.559Z,19.53
2017-07-15T16:16:10.065Z,6.73
2017-07-15T16:18:38.902Z,8.53
2017-07-15T16:21:07.407Z,10.10
2017-07-15T16:23:36.239Z,6.90
2017-07-15T16:26:05.902Z,9.33
2017-07-15T16:28:34.356Z,5.80
2017-07-15T16:31:02.812Z,13.13
2017-07-15T16:33:31.702Z,7.57
2017-07-15T16:36:00.985Z,11.40
2017-07-15T16:38:29.438Z,18.20
2017-07-15T16:40:57.962Z,5.40
2017-07-15T16:43:26.793Z,7.87
2017-07-15T16:45:55.238Z,5.20
2017-07-15T16:48:24.244Z,7.03
2017-07-15T16:50:52.668Z,7.90
2017-07-15T16:53:21.324Z,2.63
2017-07-15T16:55:50.224Z,3.50
2017-07-15T16:58:18.669Z,10.17
2017-07-15T17:00:47.136Z,3.47
2017-07-15T17:03:16.034Z,7.07
2017-07-15T17:05:44.471Z,7.13
2017-07-15T17:08:13.386Z,18.23
2017-07-15T17:10:42.236Z,7.80
2017-07-15T17:13:11.083Z,10.80
2017-07-15T17:15:40.093Z,5.07
2017-07-15T17:18:08.534Z,5.70
2017-07-15T17:20:37.375Z,6.20
2017-07-15T17:23:06.457Z,7.27
2017-07-15T17:25:35.298Z,13.17
2017-07-15T17:28:04.151Z,4.27
2017-07-15T17:30:33.404Z,5.37
2017-07-15T17:33:02.244Z,6.60
2017-07-15T17:35:30.668Z,4.67
2017-07-15T17:37:59.592Z,5.93
2017-07-15T17:40:28.040Z,6.17
2017-07-15T17:42:56.913Z,3.00
2017-07-15T17:45:26.024Z,9.57
2017-07-15T17:47:55.248Z,5.03
2017-07-15T17:50:24.861Z,8.23
2017-07-15T17:52:53.871Z,15.30
2017-07-15T17:55:22.308Z,26.67
2017-07-15T17:57:51.144Z,5.43
2017-07-15T18:00:20.096Z,13.23
2017-07-15T18:02:48.558Z,5.70
2017-07-15T18:05:17.006Z,6.13
2017-07-15T18:07:45.905Z,5.03
2017-07-15T18:10:14.329Z,6.60
2017-07-15T18:12:43.197Z,8.33
2017-07-15T18:15:11.672Z,9.90
2017-07-15T18:17:40.127Z,6.63
2017-07-15T18:20:09.016Z,9.80
2017-07-15T18:22:38.075Z,7.60
2017-07-15T18:25:06.512Z,7.33
2017-07-15T18:27:35.110Z,8.20
2017-07-15T18:30:04.012Z,5.90
2017-07-15T18:32:32.479Z,7.07
2017-07-15T18:35:00.916Z,3.57
2017-07-15T18:37:29.449Z,5.90
2017-07-15T18:39:58.301Z,10.40
2017-07-15T18:42:26.737Z,12.00
2017-07-15T18:44:55.645Z,5.43
2017-07-15T18:47:24.550Z,13.03
2017-07-15T18:49:53.579Z,4.33
2017-07-15T18:52:23.318Z,14.10
2017-07-15T18:54:52.268Z,9.73
2017-07-15T18:57:21.348Z,6.37
2017-07-15T18:59:49.841Z,7.00
2017-07-15T19:02:18.667Z,7.60
2017-07-15T19:04:47.091Z,8.40
2017-07-15T19:07:16.396Z,12.37
2017-07-15T19:09:44.833Z,7.23
2017-07-15T19:12:13.652Z,8.90
2017-07-15T19:14:42.153Z,10.10
2017-07-15T19:17:10.584Z,11.00
2017-07-15T19:19:39.410Z,8.17
2017-07-15T19:22:08.290Z,12.13
2017-07-15T19:24:36.798Z,4.23
2017-07-15T19:27:05.227Z,8.90
2017-07-15T19:29:33.660Z,8.73
2017-07-15T19:32:02.907Z,14.63
2017-07-15T19:34:31.736Z,5.00
2017-07-15T19:37:00.166Z,11.10
2017-07-15T19:39:28.641Z,4.13
2017-07-15T19:41:57.086Z,12.60
2017-07-15T19:44:26.428Z,10.50
2017-07-15T19:46:54.917Z,6.63
2017-07-15T19:49:23.349Z,7.17
2017-07-15T19:51:52.553Z,10.23
2017-07-15T19:54:21.032Z,10.07
2017-07-15T19:56:50.283Z,6.57
2017-07-15T19:59:18.807Z,12.50
2017-07-15T20:01:48.014Z,11.83
2017-07-15T20:04:16.897Z,5.47
2017-07-15T20:06:46.209Z,4.10
2017-07-15T20:09:14.643Z,10.63
2017-07-15T20:11:43.123Z,5.40
2017-07-15T20:14:11.552Z,8.53
2017-07-15T20:16:40.207Z,7.13
2017-07-15T20:19:09.196Z,6.80
2017-07-15T20:21:38.771Z,8.93
2017-07-15T20:24:07.217Z,9.83
2017-07-15T20:26:35.678Z,5.30
2017-07-15T20:29:04.551Z,16.67
2017-07-15T20:31:33.410Z,10.57
2017-07-15T20:34:03.644Z,6.23
2017-07-15T20:36:37.649Z,9.93
2017-07-15T20:39:06.162Z,6.43
2017-07-15T20:41:35.206Z,26.23
2017-07-15T20:44:03.698Z,10.53
2017-07-15T20:46:32.141Z,11.33
2017-07-15T20:49:01.009Z,7.77
2017-07-15T20:51:30.265Z,5.27
2017-07-15T20:54:15.734Z,5.30
2017-07-15T20:56:44.178Z,4.53
2017-07-15T20:59:13.376Z,5.30
2017-07-15T21:01:42.259Z,13.13
2017-07-15T21:04:11.106Z,7.20
2017-07-15T21:06:39.990Z,5.53
2017-07-15T21:09:09.024Z,9.33
2017-07-15T21:11:37.665Z,4.00
2017-07-15T21:14:06.779Z,13.77
2017-07-15T21:16:35.629Z,6.23
2017-07-15T21:19:04.354Z,13.30
2017-07-15T21:21:32.840Z,8.83
2017-07-15T21:24:01.681Z,8.40
2017-07-15T21:26:30.516Z,10.40
2017-07-15T21:28:58.993Z,6.80
2017-07-15T21:31:27.440Z,9.23
2017-07-15T21:33:56.061Z,7.73
2017-07-15T21:36:24.896Z,11.13
2017-07-15T21:38:53.326Z,9.30
2017-07-15T21:41:21.822Z,13.00
2017-07-15T21:43:50.834Z,11.13
2017-07-15T21:46:19.364Z,8.63
2017-07-15T21:48:47.848Z,11.13
2017-07-15T21:51:17.836Z,10.30
2017-07-15T21:53:46.292Z,6.47
2017-07-15T21:56:15.170Z,8.73
2017-07-15T21:58:44.102Z,9.30
2017-07-15T22:01:12.604Z,6.73
2017-07-15T22:03:41.064Z,6.83
2017-07-15T22:06:09.893Z,8.10
2017-07-15T22:08:38.801Z,13.03
2017-07-15T22:11:07.284Z,7.00
2017-07-15T22:13:36.501Z,7.70
2017-07-15T22:16:05.710Z,10.10
2017-07-15T22:18:34.206Z,10.50
2017-07-15T22:21:02.633Z,7.80
2017-07-15T22:23:31.067Z,5.20
2017-07-15T22:25:59.940Z,7.30
2017-07-15T22:28:29.192Z,15.13
2017-07-15T22:30:58.082Z,9.13
2017-07-15T22:33:26.519Z,11.40
2017-07-15T22:35:55.039Z,7.27
2017-07-15T22:38:23.509Z,11.17
2017-07-15T22:40:52.152Z,6.30
2017-07-15T22:43:20.919Z,9.50
2017-07-15T22:45:49.348Z,11.27
2017-07-15T22:48:17.787Z,23.60
2017-07-15T22:50:46.253Z,8.83
2017-07-15T22:53:14.693Z,7.60
2017-07-15T22:55:43.164Z,9.23
2017-07-15T22:58:12.391Z,12.90
2017-07-15T23:00:41.252Z,9.67
2017-07-15T23:03:09.691Z,12.90
2017-07-15T23:05:38.165Z,8.93
2017-07-15T23:08:06.614Z,9.33
2017-07-15T23:10:35.104Z,11.33
2017-07-15T23:13:03.932Z,16.23
2017-07-15T23:15:32.832Z,7.90
2017-07-15T23:18:01.260Z,5.87
2017-07-15T23:20:29.737Z,9.77
2017-07-15T23:22:58.163Z,10.90
2017-07-15T23:25:27.033Z,11.03
2017-07-15T23:27:55.998Z,5.60
2017-07-15T23:30:24.442Z,12.57
2017-07-15T23:32:53.317Z,8.60
2017-07-15T23:35:22.641Z,9.40
2017-07-15T23:37:51.073Z,11.47
2017-07-15T23:40:19.716Z,9.90
2017-07-15T23:42:48.924Z,13.10
2017-07-15T23:45:17.775Z,14.23
2017-07-15T23:47:46.206Z,6.73
2017-07-15T23:50:14.783Z,17.67
2017-07-15T23:52:43.652Z,12.13
2017-07-15T23:55:12.153Z,9.50
2017-07-15T23:57:41.064Z,11.90
